PWSweather.com
Personal Weather Stations
Station Observations
PENICUIKWS
PenicuikGB

PenicuikGB

Lat: 55.830932, Lon: -3.224533000000065

Elevation: 166

Station Type: Fine Offset

http://weather.penicuik.org

High Low Average
Temperature 49.3°F9.6°C 38.5°F3.6°C 43.4°F6.3°C
Dew Point 45.6°F7.6°C 33.8°F1.0°C 37.5°F3.1°C
Winds 11.7 mph 18.8 kmh 2.0 mph 3.2 kmh 6.0 mph SW9.7 kmh SW
Wind Gusts 25.1 mph40.4 kmh 3.1 mph5.0 kmh 11.0 mph17.7 kmh
Humidity 90% 68% 80%
Pressure 29.51 in999.3 mb 29.03 in983.1 mb -
Precipitation 0.45 in11.4 mm - -
Hour Temp Dew Point Humidity Winds Wind Gusts Pressure Precip Precip Rate Daily Precip Total
12:00 AM 43.7°F6.5°C 39.8°F4.3°C 86% 2.8 mph NW4.5 kmh NW 6.0 mph9.7 kmh 29.51 in999.3 mb 0.02 in0.5 mm 0.00 in0.0 mm 0.02 in0.5 mm
12:30 AM 44.1°F6.7°C 40.7°F4.8°C 88% 2.9 mph SW4.7 kmh SW 8.3 mph13.4 kmh 29.46 in997.6 mb 0.02 in0.5 mm 0.00 in0.0 mm 0.02 in0.5 mm
12:45 AM 44.4°F6.9°C 41.1°F5.1°C 88% 4.8 mph E7.7 kmh E 8.3 mph13.4 kmh 29.45 in997.3 mb 0.02 in0.5 mm 0.00 in0.0 mm 0.01 in0.3 mm
01:00 AM 44.1°F6.7°C 40.1°F4.5°C 86% 3.8 mph S6.1 kmh S 6.0 mph9.7 kmh 29.41 in995.9 mb 0.01 in0.3 mm 0.00 in0.0 mm 0.01 in0.3 mm
01:15 AM 43.5°F6.4°C 39.3°F4.1°C 85% 4.4 mph S7.1 kmh S 6.9 mph11.1 kmh 29.36 in994.2 mb 0.02 in0.5 mm 0.04 in1.0 mm 0.02 in0.5 mm
01:30 AM 43.2°F6.2°C 39.3°F4.1°C 86% 4.0 mph S6.4 kmh S 6.9 mph11.1 kmh 29.34 in993.6 mb 0.04 in1.0 mm 0.08 in2.0 mm 0.04 in1.0 mm
01:45 AM 44.2°F6.8°C 40.9°F4.9°C 88% 5.0 mph SW8.0 kmh SW 10.7 mph17.2 kmh 29.32 in992.9 mb 0.04 in1.0 mm 0.00 in0.0 mm 0.05 in1.3 mm
02:00 AM 45.5°F7.5°C 42.2°F5.7°C 88% 7.6 mph WSW12.2 kmh WSW 11.4 mph18.3 kmh 29.29 in991.9 mb 0.04 in1.0 mm 0.00 in0.0 mm 0.05 in1.3 mm
02:15 AM 46.8°F8.2°C 42.8°F6.0°C 86% 9.6 mph SSW15.4 kmh SSW 15.9 mph25.6 kmh 29.27 in991.2 mb 0.02 in0.5 mm 0.00 in0.0 mm 0.05 in1.3 mm
02:30 AM 47.5°F8.6°C 43.2°F6.2°C 85% 11.7 mph SE18.8 kmh SE 16.8 mph27.0 kmh 29.25 in990.5 mb 0.01 in0.3 mm 0.00 in0.0 mm 0.05 in1.3 mm
02:45 AM 47.7°F8.7°C 43.4°F6.3°C 85% 10.0 mph SE16.1 kmh SE 23.5 mph37.8 kmh 29.23 in989.8 mb 0.01 in0.3 mm 0.00 in0.0 mm 0.06 in1.5 mm
03:00 AM 48.0°F8.9°C 43.7°F6.5°C 85% 9.6 mph E15.4 kmh E 19.0 mph30.6 kmh 29.22 in989.5 mb 0.02 in0.5 mm 0.01 in0.3 mm 0.07 in1.8 mm
03:15 AM 48.2°F9.0°C 43.9°F6.6°C 85% 9.6 mph SW15.4 kmh SW 18.3 mph29.5 kmh 29.20 in988.8 mb 0.02 in0.5 mm 0.00 in0.0 mm 0.07 in1.8 mm
03:30 AM 48.4°F9.1°C 44.1°F6.7°C 85% 8.4 mph S13.5 kmh S 19.7 mph31.7 kmh 29.18 in988.1 mb 0.04 in1.0 mm 0.08 in2.0 mm 0.08 in2.0 mm
03:45 AM 48.6°F9.2°C 44.3°F6.8°C 85% 7.2 mph SSE11.6 kmh SSE 9.8 mph15.8 kmh 29.15 in987.1 mb 0.05 in1.3 mm 0.04 in1.0 mm 0.11 in2.8 mm
04:00 AM 48.6°F9.2°C 44.3°F6.8°C 85% 9.3 mph SE15.0 kmh SE 14.5 mph23.3 kmh 29.13 in986.5 mb 0.04 in1.0 mm 0.00 in0.0 mm 0.11 in2.8 mm
04:15 AM 48.7°F9.3°C 44.4°F6.9°C 85% 6.2 mph S10.0 kmh S 12.1 mph19.5 kmh 29.11 in985.8 mb 0.06 in1.5 mm 0.08 in2.0 mm 0.13 in3.3 mm
04:30 AM 48.7°F9.3°C 44.7°F7.1°C 86% 8.4 mph SW13.5 kmh SW 15.2 mph24.5 kmh 29.09 in985.1 mb 0.07 in1.8 mm 0.04 in1.0 mm 0.15 in3.8 mm
04:45 AM 49.1°F9.5°C 45.4°F7.4°C 87% 10.4 mph SE16.7 kmh SE 18.3 mph29.5 kmh 29.07 in984.4 mb 0.06 in1.5 mm 0.00 in0.0 mm 0.17 in4.3 mm
05:00 AM 49.3°F9.6°C 45.6°F7.6°C 87% 7.4 mph SSW11.9 kmh SSW 13.6 mph21.9 kmh 29.06 in984.1 mb 0.06 in1.5 mm 0.00 in0.0 mm 0.17 in4.3 mm
05:15 AM 49.3°F9.6°C 45.6°F7.6°C 87% 7.9 mph SW12.7 kmh SW 15.9 mph25.6 kmh 29.05 in983.7 mb 0.08 in2.0 mm 0.08 in2.0 mm 0.21 in5.3 mm
05:45 AM 46.2°F7.9°C 42.9°F6.1°C 88% 4.0 mph W6.4 kmh W 6.0 mph9.7 kmh 29.05 in983.7 mb 0.14 in3.6 mm 0.12 in3.0 mm 0.31 in7.9 mm
06:00 AM 46.8°F8.2°C 43.7°F6.5°C 89% 4.6 mph WNW7.4 kmh WNW 9.8 mph15.8 kmh 29.03 in983.1 mb 0.14 in3.6 mm 0.00 in0.0 mm 0.31 in7.9 mm
06:15 AM 47.1°F8.4°C 44.3°F6.8°C 90% 6.8 mph NW10.9 kmh NW 16.8 mph27.0 kmh 29.04 in983.4 mb 0.12 in3.0 mm 0.00 in0.0 mm 0.33 in8.4 mm
06:30 AM 46.6°F8.1°C 43.2°F6.2°C 88% 6.7 mph NNE10.8 kmh NNE 9.8 mph15.8 kmh 29.05 in983.7 mb 0.02 in0.5 mm 0.00 in0.0 mm 0.33 in8.4 mm
06:45 AM 45.9°F7.7°C 40.7°F4.8°C 82% 8.3 mph NW13.4 kmh NW 13.6 mph21.9 kmh 29.06 in984.1 mb 0.02 in0.5 mm 0.00 in0.0 mm 0.33 in8.4 mm
07:00 AM 45.5°F7.5°C 38.7°F3.7°C 77% 8.6 mph NW13.8 kmh NW 13.6 mph21.9 kmh 29.04 in983.4 mb 0.01 in0.3 mm 0.00 in0.0 mm 0.33 in8.4 mm
07:15 AM 45.3°F7.4°C 38.5°F3.6°C 77% 8.7 mph WSW14.0 kmh WSW 16.8 mph27.0 kmh 29.05 in983.7 mb 0.00 in0.0 mm 0.00 in0.0 mm 0.33 in8.4 mm
07:30 AM 45.1°F7.3°C 38.0°F3.3°C 76% 11.6 mph NE18.7 kmh NE 15.9 mph25.6 kmh 29.07 in984.4 mb 0.01 in0.3 mm 0.04 in1.0 mm 0.34 in8.6 mm
07:45 AM 44.8°F7.1°C 37.0°F2.8°C 74% 7.1 mph WSW11.4 kmh WSW 11.4 mph18.3 kmh 29.05 in983.7 mb 0.01 in0.3 mm 0.00 in0.0 mm 0.34 in8.6 mm
08:00 AM 44.6°F7.0°C 36.5°F2.5°C 73% 8.5 mph NW13.7 kmh NW 18.3 mph29.5 kmh 29.08 in984.8 mb 0.01 in0.3 mm 0.00 in0.0 mm 0.34 in8.6 mm
08:15 AM 44.1°F6.7°C 35.6°F2.0°C 72% 7.5 mph NW12.1 kmh NW 11.4 mph18.3 kmh 29.09 in985.1 mb 0.01 in0.3 mm 0.00 in0.0 mm 0.34 in8.6 mm
08:30 AM 43.5°F6.4°C 35.1°F1.7°C 72% 7.6 mph WSW12.2 kmh WSW 12.1 mph19.5 kmh 29.09 in985.1 mb 0.00 in0.0 mm 0.00 in0.0 mm 0.34 in8.6 mm
08:45 AM 42.6°F5.9°C 35.9°F2.2°C 77% 6.3 mph SSE10.1 kmh SSE 12.1 mph19.5 kmh 29.10 in985.4 mb 0.00 in0.0 mm 0.00 in0.0 mm 0.34 in8.6 mm
09:00 AM 42.1°F5.6°C 36.4°F2.4°C 80% 5.4 mph W8.7 kmh W 7.6 mph12.2 kmh 29.09 in985.1 mb 0.00 in0.0 mm 0.00 in0.0 mm 0.34 in8.6 mm
09:15 AM 42.3°F5.7°C 35.2°F1.8°C 76% 6.4 mph WSW10.3 kmh WSW 10.7 mph17.2 kmh 29.11 in985.8 mb 0.00 in0.0 mm 0.00 in0.0 mm 0.34 in8.6 mm
09:30 AM 42.3°F5.7°C 34.6°F1.4°C 74% 8.7 mph WSW14.0 kmh WSW 15.9 mph25.6 kmh 29.12 in986.1 mb 0.00 in0.0 mm 0.00 in0.0 mm 0.34 in8.6 mm
09:45 AM 43.3°F6.3°C 34.6°F1.4°C 71% 8.3 mph W13.4 kmh W 19.7 mph31.7 kmh 29.12 in986.1 mb 0.00 in0.0 mm 0.00 in0.0 mm 0.34 in8.6 mm
10:00 AM 43.7°F6.5°C 34.2°F1.2°C 69% 6.5 mph WSW10.5 kmh WSW 12.1 mph19.5 kmh 29.11 in985.8 mb 0.00 in0.0 mm 0.00 in0.0 mm 0.34 in8.6 mm
10:15 AM 43.0°F6.1°C 33.9°F1.1°C 70% 7.4 mph S11.9 kmh S 11.4 mph18.3 kmh 29.11 in985.8 mb 0.00 in0.0 mm 0.00 in0.0 mm 0.34 in8.6 mm
10:30 AM 43.2°F6.2°C 34.4°F1.3°C 71% 7.9 mph WSW12.7 kmh WSW 15.9 mph25.6 kmh 29.12 in986.1 mb 0.00 in0.0 mm 0.00 in0.0 mm 0.34 in8.6 mm
10:45 AM 43.7°F6.5°C 34.6°F1.4°C 70% 10.3 mph W16.6 kmh W 25.1 mph40.4 kmh 29.12 in986.1 mb 0.01 in0.3 mm 0.04 in1.0 mm 0.35 in8.9 mm
11:00 AM 43.9°F6.6°C 34.7°F1.5°C 70% 7.6 mph NW12.2 kmh NW 13.0 mph20.9 kmh 29.12 in986.1 mb 0.01 in0.3 mm 0.00 in0.0 mm 0.35 in8.9 mm
11:15 AM 44.2°F6.8°C 35.1°F1.7°C 70% 8.6 mph S13.8 kmh S 17.4 mph28.0 kmh 29.13 in986.5 mb 0.01 in0.3 mm 0.00 in0.0 mm 0.35 in8.9 mm
11:30 AM 44.2°F6.8°C 35.1°F1.7°C 70% 5.6 mph S9.0 kmh S 12.1 mph19.5 kmh 29.13 in986.5 mb 0.01 in0.3 mm 0.00 in0.0 mm 0.35 in8.9 mm
11:45 AM 44.2°F6.8°C 35.1°F1.7°C 70% 6.1 mph ESE9.8 kmh ESE 9.8 mph15.8 kmh 29.13 in986.5 mb 0.00 in0.0 mm 0.00 in0.0 mm 0.35 in8.9 mm
12:00 PM 44.6°F7.0°C 34.7°F1.5°C 68% 7.8 mph SSW12.6 kmh SSW 11.4 mph18.3 kmh 29.12 in986.1 mb 0.00 in0.0 mm 0.00 in0.0 mm 0.35 in8.9 mm
12:15 PM 44.8°F7.1°C 34.9°F1.6°C 68% 9.0 mph WSW14.5 kmh WSW 17.4 mph28.0 kmh 29.12 in986.1 mb 0.00 in0.0 mm 0.00 in0.0 mm 0.35 in8.9 mm
12:30 PM 44.8°F7.1°C 34.9°F1.6°C 68% 9.9 mph N15.9 kmh N 18.3 mph29.5 kmh 29.13 in986.5 mb 0.00 in0.0 mm 0.00 in0.0 mm 0.35 in8.9 mm
12:45 PM 45.0°F7.2°C 35.0°F1.7°C 68% 8.3 mph W13.4 kmh W 14.5 mph23.3 kmh 29.14 in986.8 mb 0.00 in0.0 mm 0.00 in0.0 mm 0.35 in8.9 mm
01:00 PM 44.8°F7.1°C 35.2°F1.8°C 69% 7.4 mph W11.9 kmh W 15.9 mph25.6 kmh 29.14 in986.8 mb 0.00 in0.0 mm 0.00 in0.0 mm 0.35 in8.9 mm
01:15 PM 44.8°F7.1°C 35.2°F1.8°C 69% 7.5 mph SE12.1 kmh SE 13.0 mph20.9 kmh 29.13 in986.5 mb 0.00 in0.0 mm 0.00 in0.0 mm 0.35 in8.9 mm
01:30 PM 44.8°F7.1°C 35.6°F2.0°C 70% 7.2 mph NNE11.6 kmh NNE 11.4 mph18.3 kmh 29.15 in987.1 mb 0.00 in0.0 mm 0.00 in0.0 mm 0.35 in8.9 mm
01:45 PM 45.0°F7.2°C 35.4°F1.9°C 69% 7.8 mph S12.6 kmh S 10.7 mph17.2 kmh 29.15 in987.1 mb 0.00 in0.0 mm 0.00 in0.0 mm 0.35 in8.9 mm
02:00 PM 45.1°F7.3°C 35.6°F2.0°C 69% 8.4 mph N13.5 kmh N 10.7 mph17.2 kmh 29.15 in987.1 mb 0.00 in0.0 mm 0.00 in0.0 mm 0.35 in8.9 mm
02:15 PM 44.6°F7.0°C 35.4°F1.9°C 70% 7.8 mph SW12.6 kmh SW 11.4 mph18.3 kmh 29.16 in987.5 mb 0.00 in0.0 mm 0.00 in0.0 mm 0.35 in8.9 mm
02:30 PM 44.2°F6.8°C 36.1°F2.3°C 73% 5.6 mph WNW9.0 kmh WNW 8.3 mph13.4 kmh 29.16 in987.5 mb 0.00 in0.0 mm 0.00 in0.0 mm 0.35 in8.9 mm
02:45 PM 44.4°F6.9°C 35.6°F2.0°C 71% 6.8 mph E10.9 kmh E 11.4 mph18.3 kmh 29.17 in987.8 mb 0.00 in0.0 mm 0.00 in0.0 mm 0.35 in8.9 mm
03:00 PM 44.4°F6.9°C 35.6°F2.0°C 71% 6.2 mph NNW10.0 kmh NNW 13.6 mph21.9 kmh 29.18 in988.1 mb 0.00 in0.0 mm 0.00 in0.0 mm 0.35 in8.9 mm
03:15 PM 44.8°F7.1°C 36.0°F2.2°C 71% 6.5 mph SW10.5 kmh SW 11.4 mph18.3 kmh 29.18 in988.1 mb 0.00 in0.0 mm 0.00 in0.0 mm 0.35 in8.9 mm
03:30 PM 44.4°F6.9°C 35.6°F2.0°C 71% 8.5 mph ESE13.7 kmh ESE 15.2 mph24.5 kmh 29.20 in988.8 mb 0.00 in0.0 mm 0.00 in0.0 mm 0.35 in8.9 mm
03:45 PM 43.0°F6.1°C 35.3°F1.8°C 74% 9.5 mph SW15.3 kmh SW 15.9 mph25.6 kmh 29.22 in989.5 mb 0.00 in0.0 mm 0.00 in0.0 mm 0.35 in8.9 mm
04:00 PM 42.4°F5.8°C 36.4°F2.4°C 79% 4.6 mph E7.4 kmh E 7.6 mph12.2 kmh 29.22 in989.5 mb 0.01 in0.3 mm 0.01 in0.3 mm 0.37 in9.4 mm
04:15 PM 41.9°F5.5°C 36.8°F2.7°C 82% 4.6 mph NNE7.4 kmh NNE 6.9 mph11.1 kmh 29.22 in989.5 mb 0.01 in0.3 mm 0.00 in0.0 mm 0.37 in9.4 mm
04:30 PM 41.5°F5.3°C 36.8°F2.7°C 83% 4.2 mph WNW6.8 kmh WNW 7.6 mph12.2 kmh 29.22 in989.5 mb 0.01 in0.3 mm 0.00 in0.0 mm 0.37 in9.4 mm
04:45 PM 42.1°F5.6°C 37.3°F2.9°C 83% 5.4 mph SE8.7 kmh SE 10.7 mph17.2 kmh 29.25 in990.5 mb 0.02 in0.5 mm 0.04 in1.0 mm 0.38 in9.7 mm
05:00 PM 40.6°F4.8°C 36.2°F2.3°C 84% 6.9 mph S11.1 kmh S 9.8 mph15.8 kmh 29.26 in990.9 mb 0.07 in1.8 mm 0.07 in1.8 mm 0.44 in11.2 mm
05:15 PM 39.2°F4.0°C 35.1°F1.7°C 85% 4.5 mph SE7.2 kmh SE 6.9 mph11.1 kmh 29.26 in990.9 mb 0.07 in1.8 mm 0.00 in0.0 mm 0.44 in11.2 mm
05:30 PM 39.2°F4.0°C 35.4°F1.9°C 86% 5.3 mph SE8.5 kmh SE 9.2 mph14.8 kmh 29.27 in991.2 mb 0.07 in1.8 mm 0.00 in0.0 mm 0.44 in11.2 mm
05:45 PM 38.8°F3.8°C 35.6°F2.0°C 88% 5.1 mph W8.2 kmh W 10.7 mph17.2 kmh 29.26 in990.9 mb 0.06 in1.5 mm 0.00 in0.0 mm 0.44 in11.2 mm
06:00 PM 38.5°F3.6°C 35.2°F1.8°C 88% 3.1 mph SW5.0 kmh SW 5.4 mph8.7 kmh 29.26 in990.9 mb 0.00 in0.0 mm 0.00 in0.0 mm 0.44 in11.2 mm
06:15 PM 38.7°F3.7°C 35.7°F2.1°C 89% 3.6 mph SW5.8 kmh SW 7.6 mph12.2 kmh 29.27 in991.2 mb 0.00 in0.0 mm 0.00 in0.0 mm 0.44 in11.2 mm
06:45 PM 39.9°F4.4°C 36.9°F2.7°C 89% 4.3 mph WSW6.9 kmh WSW 8.3 mph13.4 kmh 29.27 in991.2 mb 0.01 in0.3 mm 0.02 in0.5 mm 0.45 in11.4 mm
07:00 PM 39.9°F4.4°C 36.9°F2.7°C 89% 4.5 mph NW7.2 kmh NW 6.9 mph11.1 kmh 29.28 in991.5 mb 0.01 in0.3 mm 0.00 in0.0 mm 0.45 in11.4 mm
07:15 PM 39.9°F4.4°C 36.7°F2.6°C 88% 4.7 mph SW7.6 kmh SW 6.9 mph11.1 kmh 29.28 in991.5 mb 0.01 in0.3 mm 0.00 in0.0 mm 0.45 in11.4 mm
07:30 PM 39.9°F4.4°C 36.4°F2.4°C 87% 5.3 mph SW8.5 kmh SW 8.3 mph13.4 kmh 29.29 in991.9 mb 0.01 in0.3 mm 0.00 in0.0 mm 0.45 in11.4 mm
07:45 PM 39.9°F4.4°C 36.1°F2.3°C 86% 3.6 mph N5.8 kmh N 3.8 mph6.1 kmh 29.30 in992.2 mb 0.00 in0.0 mm 0.00 in0.0 mm 0.45 in11.4 mm
08:00 PM 39.7°F4.3°C 35.6°F2.0°C 85% 3.2 mph SW5.1 kmh SW 4.5 mph7.2 kmh 29.31 in992.6 mb 0.00 in0.0 mm 0.00 in0.0 mm 0.45 in11.4 mm
08:15 PM 39.7°F4.3°C 35.6°F2.0°C 85% 3.6 mph WNW5.8 kmh WNW 5.4 mph8.7 kmh 29.30 in992.2 mb 0.00 in0.0 mm 0.00 in0.0 mm 0.45 in11.4 mm
08:30 PM 39.0°F3.9°C 34.9°F1.6°C 85% 4.4 mph NNW7.1 kmh NNW 6.9 mph11.1 kmh 29.31 in992.6 mb 0.00 in0.0 mm 0.00 in0.0 mm 0.45 in11.4 mm
08:45 PM 38.8°F3.8°C 34.7°F1.5°C 85% 2.0 mph NNW3.2 kmh NNW 3.1 mph5.0 kmh 29.32 in992.9 mb 0.00 in0.0 mm 0.00 in0.0 mm 0.45 in11.4 mm
09:00 PM 39.0°F3.9°C 35.2°F1.8°C 86% 4.6 mph WSW7.4 kmh WSW 6.9 mph11.1 kmh 29.32 in992.9 mb 0.00 in0.0 mm 0.00 in0.0 mm 0.45 in11.4 mm
09:15 PM 38.8°F3.8°C 34.7°F1.5°C 85% 2.2 mph NW3.5 kmh NW 3.8 mph6.1 kmh 29.31 in992.6 mb 0.00 in0.0 mm 0.00 in0.0 mm 0.45 in11.4 mm
09:45 PM 39.0°F3.9°C 34.6°F1.4°C 84% 3.5 mph NNW5.6 kmh NNW 8.3 mph13.4 kmh 29.33 in993.2 mb 0.00 in0.0 mm 0.00 in0.0 mm 0.45 in11.4 mm
10:00 PM 39.0°F3.9°C 34.3°F1.3°C 83% 3.6 mph W5.8 kmh W 4.5 mph7.2 kmh 29.32 in992.9 mb 0.00 in0.0 mm 0.00 in0.0 mm 0.45 in11.4 mm
10:15 PM 39.0°F3.9°C 34.3°F1.3°C 83% 3.0 mph S4.8 kmh S 5.4 mph8.7 kmh 29.32 in992.9 mb 0.00 in0.0 mm 0.00 in0.0 mm 0.45 in11.4 mm
10:30 PM 39.0°F3.9°C 34.0°F1.1°C 82% 5.0 mph NNW8.0 kmh NNW 11.4 mph18.3 kmh 29.32 in992.9 mb 0.00 in0.0 mm 0.00 in0.0 mm 0.45 in11.4 mm
10:45 PM 38.8°F3.8°C 33.8°F1.0°C 82% 4.0 mph W6.4 kmh W 8.3 mph13.4 kmh 29.33 in993.2 mb 0.00 in0.0 mm 0.00 in0.0 mm 0.45 in11.4 mm
11:00 PM 39.0°F3.9°C 34.0°F1.1°C 82% 4.4 mph WNW7.1 kmh WNW 8.3 mph13.4 kmh 29.33 in993.2 mb 0.00 in0.0 mm 0.00 in0.0 mm 0.45 in11.4 mm
11:15 PM 39.0°F3.9°C 34.0°F1.1°C 82% 4.5 mph NNW7.2 kmh NNW 9.2 mph14.8 kmh 29.34 in993.6 mb 0.00 in0.0 mm 0.00 in0.0 mm 0.45 in11.4 mm
11:30 PM 39.0°F3.9°C 34.0°F1.1°C 82% 4.3 mph NW6.9 kmh NW 6.9 mph11.1 kmh 29.35 in993.9 mb 0.00 in0.0 mm 0.00 in0.0 mm 0.45 in11.4 mm
11:45 PM 39.0°F3.9°C 34.0°F1.1°C 82% 3.1 mph WNW5.0 kmh WNW 6.9 mph11.1 kmh 29.34 in993.6 mb 0.00 in0.0 mm 0.00 in0.0 mm 0.45 in11.4 mm